Aida — SBLI — position and weather

sailwx.info

Track history (hours):
 
Tides and Currents Weather Stations Pressure Air Temp Water Temp Dewpoint Dewpoint Depression Visibility Wind Speed Wind Dir Waves Ship Positions

Aida

Last reported at 2015-May-26 16:25 UTC. Time now 2015-May-27 03:52 UTC.
Position S 26°32' E 153°19'.

Length 199.1 m; beam 32.3 m; draft 9.5 m.

Type: Cargo ship. MMSI: 266211000.

Date/timePositionNaut miles runAvg speedWind from/ knotsBaromVisibWave heightAir tempDewpointWater temp
2015-May-26 16:25S 26°32' E 153°19'910.3
2015-May-26 15:34S 26°39' E 153°14'1312.5
2015-May-26 14:33S 26°51' E 153°09'2217.1
2015-May-26 13:15S 27°11' E 153°21'1115.3
2015-May-26 12:32S 27°19' E 153°12'4 4.6
2015-May-26 11:34S 27°23' E 153°10'0 0.0
2015-May-26 10:29S 27°23' E 153°10'0 0.0
2015-May-26 09:33S 27°23' E 153°10'0 0.0
2015-May-26 08:33S 27°23' E 153°10'0 0.0
2015-May-26 07:31S 27°23' E 153°10'0 0.0
2015-May-26 06:32S 27°23' E 153°10'0 0.0
2015-May-26 05:32S 27°23' E 153°10'0 0.0
2015-May-26 04:15S 27°23' E 153°10'0 0.0
2015-May-26 03:05S 27°23' E 153°10'0 0.1
2015-May-26 02:33S 27°23' E 153°10'7 7.1
2015-May-26 01:33S 27°17' E 153°14'1413.5
2015-May-26 00:31S 27°03' E 153°18'1615.8
2015-May-25 23:31S 26°50' E 153°09'8 7.7
2015-May-25 22:29S 26°44' E 153°16'9 9.6
2015-May-25 21:33S 26°50' E 153°24'10 9.4
2015-May-25 20:30S 26°55' E 153°33'9 9.8
2015-May-25 19:32S 27°02' E 153°40'1111.7
2015-May-25 18:34S 27°13' E 153°39'9 9.4
2015-May-25 17:33S 27°23' E 153°41'10 9.6
2015-May-25 16:33S 27°32' E 153°43'12 9.5
2015-May-25 15:17S 27°44' E 153°46'7 9.4
2015-May-25 14:34S 27°51' E 153°47'10 9.8
2015-May-25 13:33S 28°00' E 153°50'11 9.8
2015-May-25 12:24S 28°11' E 153°52'25112.7
2015-May-24 16:33S 32°18' E 152°59'1616.0
2015-May-24 15:33S 32°33' E 152°52'1514.9
2015-May-24 14:33S 32°46' E 152°44'1815.5
2015-May-24 13:24S 32°59' E 152°29'1315.0
2015-May-24 12:33S 33°09' E 152°19'270 7.9
2015-May-23 02:15S 37°16' E 150°07'810.9
2015-May-23 01:33S 37°23' E 150°05'1111.2
2015-May-23 00:33S 37°35' E 150°03'1817.7
2015-May-22 23:31S 37°50' E 149°51'1717.1
2015-May-22 22:32S 38°00' E 149°34'6412.8
2015-May-22 17:30S 38°39' E 148°28'1212.7
2015-May-22 16:33S 38°46' E 148°16'1312.7
2015-May-22 15:33S 38°51' E 148°00'1412.5
2015-May-22 14:26S 38°56' E 147°44'1212.5
2015-May-22 13:28S 38°60' E 147°29'1212.9
2015-May-22 12:33S 39°04' E 147°15'1313.4
2015-May-22 11:33S 39°09' E 146°59'1413.8
2015-May-22 10:33S 39°14' E 146°42'1413.6
2015-May-22 09:33S 39°16' E 146°25'1313.3
2015-May-22 08:33S 39°13' E 146°08'1313.5
2015-May-22 07:33S 39°05' E 145°54'1313.4
2015-May-22 06:33S 38°58' E 145°40'5512.8
2015-May-22 02:13S 38°27' E 144°41'811.8
2015-May-22 01:31S 38°20' E 144°34'92 2.3
2015-May-20 09:33S 38°51' E 142°43'1616.3
2015-May-20 08:33S 38°48' E 142°22'1616.0
2015-May-20 07:33S 38°46' E 142°02'1616.2
2015-May-20 06:33S 38°43' E 141°41'69716.4
2015-May-18 12:00S 36°48' E 127°12'20617.1 180 / 161006.610.8 1.515.1 15.8
2015-May-18 00:00S 36°12' E 123°00'36815.3 1.5 16.7
2015-May-17 00:00S 35°00' E 115°36'   050 / 25995.510.8 2.514.8 21.7
Track history (hours):
 
Tides and Currents Weather Stations Pressure Air Temp Water Temp Dewpoint Dewpoint Depression Visibility Wind Speed Wind Dir Waves Ship Positions

Aida

Last reported at 2015-May-26 16:25 UTC. Time now 2015-May-27 03:52 UTC.
Position S 26°32' E 153°19'.

Length 199.1 m; beam 32.3 m; draft 9.5 m.

Type: Cargo ship. MMSI: 266211000.

Date/timePositionNaut miles runAvg speedWind from/ knotsBaromVisibWave heightAir tempDewpointWater temp
2015-May-26 16:25S 26°32' E 153°19'910.3
2015-May-26 15:34S 26°39' E 153°14'1312.5
2015-May-26 14:33S 26°51' E 153°09'2217.1
2015-May-26 13:15S 27°11' E 153°21'1115.3
2015-May-26 12:32S 27°19' E 153°12'4 4.6
2015-May-26 11:34S 27°23' E 153°10'0 0.0
2015-May-26 10:29S 27°23' E 153°10'0 0.0
2015-May-26 09:33S 27°23' E 153°10'0 0.0
2015-May-26 08:33S 27°23' E 153°10'0 0.0
2015-May-26 07:31S 27°23' E 153°10'0 0.0
2015-May-26 06:32S 27°23' E 153°10'0 0.0
2015-May-26 05:32S 27°23' E 153°10'0 0.0
2015-May-26 04:15S 27°23' E 153°10'0 0.0
2015-May-26 03:05S 27°23' E 153°10'0 0.1
2015-May-26 02:33S 27°23' E 153°10'7 7.1
2015-May-26 01:33S 27°17' E 153°14'1413.5
2015-May-26 00:31S 27°03' E 153°18'1615.8
2015-May-25 23:31S 26°50' E 153°09'8 7.7
2015-May-25 22:29S 26°44' E 153°16'9 9.6
2015-May-25 21:33S 26°50' E 153°24'10 9.4
2015-May-25 20:30S 26°55' E 153°33'9 9.8
2015-May-25 19:32S 27°02' E 153°40'1111.7
2015-May-25 18:34S 27°13' E 153°39'9 9.4
2015-May-25 17:33S 27°23' E 153°41'10 9.6
2015-May-25 16:33S 27°32' E 153°43'12 9.5
2015-May-25 15:17S 27°44' E 153°46'7 9.4
2015-May-25 14:34S 27°51' E 153°47'10 9.8
2015-May-25 13:33S 28°00' E 153°50'11 9.8
2015-May-25 12:24S 28°11' E 153°52'25112.7
2015-May-24 16:33S 32°18' E 152°59'1616.0
2015-May-24 15:33S 32°33' E 152°52'1514.9
2015-May-24 14:33S 32°46' E 152°44'1815.5
2015-May-24 13:24S 32°59' E 152°29'1315.0
2015-May-24 12:33S 33°09' E 152°19'270 7.9
2015-May-23 02:15S 37°16' E 150°07'810.9
2015-May-23 01:33S 37°23' E 150°05'1111.2
2015-May-23 00:33S 37°35' E 150°03'1817.7
2015-May-22 23:31S 37°50' E 149°51'1717.1
2015-May-22 22:32S 38°00' E 149°34'6412.8
2015-May-22 17:30S 38°39' E 148°28'1212.7
2015-May-22 16:33S 38°46' E 148°16'1312.7
2015-May-22 15:33S 38°51' E 148°00'1412.5
2015-May-22 14:26S 38°56' E 147°44'1212.5
2015-May-22 13:28S 38°60' E 147°29'1212.9
2015-May-22 12:33S 39°04' E 147°15'1313.4
2015-May-22 11:33S 39°09' E 146°59'1413.8
2015-May-22 10:33S 39°14' E 146°42'1413.6
2015-May-22 09:33S 39°16' E 146°25'1313.3
2015-May-22 08:33S 39°13' E 146°08'1313.5
2015-May-22 07:33S 39°05' E 145°54'1313.4
2015-May-22 06:33S 38°58' E 145°40'5512.8
2015-May-22 02:13S 38°27' E 144°41'811.8
2015-May-22 01:31S 38°20' E 144°34'92 2.3
2015-May-20 09:33S 38°51' E 142°43'1616.3
2015-May-20 08:33S 38°48' E 142°22'1616.0
2015-May-20 07:33S 38°46' E 142°02'1616.2
2015-May-20 06:33S 38°43' E 141°41'69716.4
2015-May-18 12:00S 36°48' E 127°12'20617.1 180 / 161006.610.8 1.515.1 15.8
2015-May-18 00:00S 36°12' E 123°00'36815.3 1.5 16.7
2015-May-17 00:00S 35°00' E 115°36'   050 / 25995.510.8 2.514.8 21.7

Dump ship's entire track history